createdAt,value
2022-11-12T00:01:51.531Z,99635.16
2022-11-12T00:05:11.683Z,99626.06
2022-11-12T00:08:31.544Z,99629.31
2022-11-12T00:11:51.477Z,99629.56
2022-11-12T00:15:11.318Z,99638.44
2022-11-12T00:18:31.524Z,99654.25
2022-11-12T00:21:51.516Z,99655.31
2022-11-12T00:25:11.704Z,99669.25
2022-11-12T00:28:37.236Z,99670.34
2022-11-12T00:31:58.490Z,99671.69
2022-11-12T00:35:18.378Z,99662.34
2022-11-12T00:38:38.245Z,99667.19
2022-11-12T00:41:58.000Z,99655.38
2022-11-12T00:45:18.370Z,99663.94
2022-11-12T00:48:38.368Z,99654.56
2022-11-12T00:51:58.534Z,99664.97
2022-11-12T00:55:18.369Z,99677.59
2022-11-12T00:58:38.197Z,99689.88
2022-11-12T01:01:57.978Z,99683.69
2022-11-12T01:05:18.371Z,99689.06
2022-11-12T01:08:38.252Z,99697.63
2022-11-12T01:11:58.254Z,99706.75
2022-11-12T01:15:18.156Z,99716.19
2022-11-12T01:18:38.276Z,99710.09
2022-11-12T01:21:58.568Z,99715.69
2022-11-12T01:25:18.535Z,99711.13
2022-11-12T01:28:38.394Z,99711.16
2022-11-12T01:31:58.383Z,99708.25
2022-11-12T01:35:18.173Z,99714.44
2022-11-12T01:38:38.520Z,99720.31
2022-11-12T01:41:58.487Z,99726.19
2022-11-12T01:45:18.770Z,99731.81
2022-11-12T01:48:40.220Z,99730.50
2022-11-12T01:52:03.031Z,99723.28
2022-11-12T01:55:23.349Z,99725.41
2022-11-12T01:58:43.548Z,99725.94
2022-11-12T02:02:03.449Z,99730.56
2022-11-12T02:05:23.651Z,99734.31
2022-11-12T02:08:43.828Z,99729.22
2022-11-12T02:12:04.034Z,99732.47
2022-11-12T02:15:24.155Z,99719.91
2022-11-12T02:18:44.153Z,99724.47
2022-11-12T02:22:04.050Z,99718.88
2022-11-12T02:25:23.924Z,99713.81
2022-11-12T02:28:43.638Z,99723.22
2022-11-12T02:32:03.500Z,99719.72
2022-11-12T02:35:23.413Z,99714.13
2022-11-12T02:38:43.504Z,99711.75
2022-11-12T02:42:03.298Z,99712.31
2022-11-12T02:45:23.426Z,99710.16
2022-11-12T02:48:44.062Z,99697.59
2022-11-12T02:52:05.089Z,99689.09
2022-11-12T02:55:25.113Z,99673.84
2022-11-12T02:58:44.896Z,99670.19
2022-11-12T03:02:04.658Z,99665.66
2022-11-12T03:05:24.913Z,99676.38
2022-11-12T03:08:44.774Z,99686.28
2022-11-12T03:12:05.101Z,99683.34
2022-11-12T03:15:25.086Z,99680.38
2022-11-12T03:18:44.768Z,99685.47
2022-11-12T03:22:04.704Z,99689.50
2022-11-12T03:25:25.375Z,99677.50
2022-11-12T03:28:45.324Z,99683.41
2022-11-12T03:32:05.324Z,99681.28
2022-11-12T03:35:26.782Z,99680.19
2022-11-12T03:38:46.947Z,99676.22
2022-11-12T03:42:06.833Z,99666.06
2022-11-12T03:45:27.478Z,99666.59
2022-11-12T03:48:50.434Z,99678.09
2022-11-12T03:52:10.616Z,99678.88
2022-11-12T03:55:30.547Z,99681.78
2022-11-12T03:58:50.554Z,99679.13
2022-11-12T04:02:14.485Z,99682.06
2022-11-12T04:05:53.424Z,99684.22
2022-11-12T04:09:13.571Z,99680.72
2022-11-12T04:12:52.361Z,99681.00
2022-11-12T04:16:32.907Z,99677.00
2022-11-12T04:20:11.737Z,99684.72
2022-11-12T04:23:31.831Z,99691.13
2022-11-12T04:26:51.751Z,99692.22
2022-11-12T04:30:19.429Z,99688.22
2022-11-12T04:33:39.505Z,99683.94
2022-11-12T04:36:59.440Z,99684.47
2022-11-12T04:40:38.492Z,99687.69
2022-11-12T04:44:17.374Z,99692.22
2022-11-12T04:47:38.678Z,99693.56
2022-11-12T04:51:03.060Z,99697.31
2022-11-12T04:54:22.963Z,99691.41
2022-11-12T04:57:43.337Z,99689.28
2022-11-12T05:01:03.886Z,99697.53
2022-11-12T05:04:27.608Z,99709.81
2022-11-12T05:07:47.742Z,99707.72
2022-11-12T05:11:12.659Z,99711.19
2022-11-12T05:14:33.168Z,99709.81
2022-11-12T05:17:53.171Z,99696.72
2022-11-12T05:21:31.780Z,99700.97
2022-11-12T05:24:52.122Z,99698.31
2022-11-12T05:28:11.892Z,99705.19
2022-11-12T05:31:34.004Z,99703.31
2022-11-12T05:34:54.109Z,99697.16
2022-11-12T05:38:14.096Z,99696.88
2022-11-12T05:41:51.362Z,99700.88
2022-11-12T05:45:14.234Z,99697.44
2022-11-12T05:48:34.439Z,99708.38
2022-11-12T05:51:54.285Z,99700.38
2022-11-12T05:55:14.089Z,99714.81
2022-11-12T05:58:34.043Z,99718.53
2022-11-12T06:01:54.936Z,99714.81
2022-11-12T06:05:15.036Z,99706.25
2022-11-12T06:08:34.843Z,99694.03
2022-11-12T06:11:54.773Z,99694.31
2022-11-12T06:15:14.621Z,99688.72
2022-11-12T06:18:34.821Z,99687.91
2022-11-12T06:21:54.875Z,99699.38
2022-11-12T06:25:15.435Z,99707.31
2022-11-12T06:28:35.473Z,99703.38
2022-11-12T06:31:55.913Z,99693.25
2022-11-12T06:35:16.120Z,99689.22
2022-11-12T06:38:36.740Z,99692.41
2022-11-12T06:41:56.803Z,99688.16
2022-11-12T06:45:16.578Z,99687.06
2022-11-12T06:48:36.383Z,99696.13
2022-11-12T06:51:56.412Z,99702.47
2022-11-12T06:55:16.447Z,99706.44
2022-11-12T06:58:36.867Z,99713.06
2022-11-12T07:01:57.054Z,99718.13
2022-11-12T07:05:17.352Z,99701.88
2022-11-12T07:08:37.549Z,99710.34
2022-11-12T07:11:58.496Z,99710.34
2022-11-12T07:15:19.058Z,99712.97
2022-11-12T07:18:39.056Z,99707.13
2022-11-12T07:21:59.330Z,99717.22
2022-11-12T07:25:19.648Z,99729.72
2022-11-12T07:28:39.477Z,99732.91
2022-11-12T07:31:59.628Z,99734.75
2022-11-12T07:35:19.578Z,99742.16
2022-11-12T07:38:39.979Z,99750.19
2022-11-12T07:41:59.919Z,99745.63
2022-11-12T07:45:19.837Z,99752.31
2022-11-12T07:48:39.849Z,99767.84
2022-11-12T07:52:00.135Z,99757.22
2022-11-12T07:55:20.511Z,99758.78
2022-11-12T07:58:40.428Z,99749.97
2022-11-12T08:02:00.344Z,99743.53
2022-11-12T08:05:21.475Z,99752.59
2022-11-12T08:08:41.922Z,99757.69
2022-11-12T08:12:02.363Z,99767.81
2022-11-12T08:15:22.085Z,99780.28
2022-11-12T08:18:42.376Z,99789.84
2022-11-12T08:22:02.285Z,99786.06
2022-11-12T08:25:22.504Z,99777.03
2022-11-12T08:28:42.598Z,99768.81
2022-11-12T08:32:02.415Z,99765.13
2022-11-12T08:35:22.276Z,99761.19
2022-11-12T08:38:42.432Z,99768.94
2022-11-12T08:42:02.626Z,99765.28
2022-11-12T08:45:22.577Z,99770.13
2022-11-12T08:48:42.408Z,99773.09
2022-11-12T08:52:02.391Z,99777.88
2022-11-12T08:55:22.541Z,99775.47
2022-11-12T08:58:42.669Z,99774.97
2022-11-12T09:02:05.153Z,99772.28
2022-11-12T09:05:25.013Z,99781.63
2022-11-12T09:08:44.768Z,99777.88
2022-11-12T09:12:13.638Z,99780.78
2022-11-12T09:15:38.415Z,99785.03
2022-11-12T09:18:59.023Z,99775.41
2022-11-12T09:22:18.995Z,99777.50
2022-11-12T09:25:39.199Z,99786.59
2022-11-12T09:28:59.092Z,99776.94
2022-11-12T09:32:19.208Z,99779.09
2022-11-12T09:35:39.301Z,99774.31
2022-11-12T09:38:59.269Z,99775.19
2022-11-12T09:42:20.339Z,99772.84
2022-11-12T09:45:41.834Z,99781.91
2022-11-12T09:49:20.103Z,99771.75
2022-11-12T09:52:40.374Z,99767.47
2022-11-12T09:56:00.562Z,99761.13
2022-11-12T09:59:21.197Z,99760.38
2022-11-12T10:03:03.489Z,99749.13
2022-11-12T10:06:24.711Z,99742.72
2022-11-12T10:09:48.282Z,99742.19
2022-11-12T10:13:08.411Z,99734.75
2022-11-12T10:16:44.782Z,99744.41
2022-11-12T10:20:24.226Z,99738.31
2022-11-12T10:23:47.829Z,99728.66
2022-11-12T10:27:17.820Z,99723.53
2022-11-12T10:30:37.768Z,99732.34
2022-11-12T10:34:05.691Z,99741.97
2022-11-12T10:37:40.771Z,99744.09
2022-11-12T10:41:00.978Z,99758.50
2022-11-12T10:44:21.744Z,99740.88
2022-11-12T10:47:44.556Z,99729.72
2022-11-12T10:51:05.116Z,99733.03
2022-11-12T10:54:36.748Z,99726.41
2022-11-12T10:58:11.962Z,99718.94
2022-11-12T11:01:35.534Z,99722.69
2022-11-12T11:04:56.371Z,99732.00
2022-11-12T11:08:16.342Z,99738.19
2022-11-12T11:11:36.097Z,99735.22
2022-11-12T11:15:11.580Z,99728.56
2022-11-12T11:18:35.791Z,99724.00
2022-11-12T11:22:05.027Z,99731.72
2022-11-12T11:25:28.521Z,99737.38
2022-11-12T11:29:02.844Z,99736.28
2022-11-12T11:32:34.583Z,99739.47
2022-11-12T11:35:57.178Z,99749.59
2022-11-12T11:39:46.694Z,99738.13
2022-11-12T11:43:13.067Z,99730.13
2022-11-12T11:46:32.892Z,99723.47
2022-11-12T11:49:52.812Z,99718.13
2022-11-12T11:53:20.256Z,99722.94
2022-11-12T11:56:44.215Z,99709.81
2022-11-12T12:00:04.645Z,99708.47
2022-11-12T12:03:36.374Z,99709.03
2022-11-12T12:07:02.791Z,99709.81
2022-11-12T12:11:07.010Z,99706.59
2022-11-12T12:14:27.762Z,99709.03
2022-11-12T12:17:50.687Z,99704.47
2022-11-12T12:21:15.829Z,99693.00
2022-11-12T12:24:37.650Z,99689.53
2022-11-12T12:28:02.425Z,99690.63
2022-11-12T12:31:29.915Z,99697.28
2022-11-12T12:34:52.088Z,99701.56
2022-11-12T12:38:32.016Z,99708.44
2022-11-12T12:42:00.724Z,99694.66
2022-11-12T12:45:29.613Z,99679.66
2022-11-12T12:48:54.248Z,99677.00
2022-11-12T12:52:15.325Z,99657.19
2022-11-12T12:55:38.221Z,99648.38
2022-11-12T12:58:58.288Z,99650.03
2022-11-12T13:02:22.636Z,99649.88
2022-11-12T13:05:42.931Z,99635.19
2022-11-12T13:09:06.171Z,99639.69
2022-11-12T13:12:49.525Z,99643.94
2022-11-12T13:16:09.667Z,99652.63
2022-11-12T13:19:30.610Z,99656.16
2022-11-12T13:22:51.672Z,99657.34
2022-11-12T13:26:30.643Z,99651.63
2022-11-12T13:29:51.016Z,99643.34
2022-11-12T13:33:18.955Z,99626.00
2022-11-12T13:36:38.785Z,99637.53
2022-11-12T13:40:02.396Z,99640.78
2022-11-12T13:43:31.336Z,99635.16
2022-11-12T13:46:51.767Z,99635.41
2022-11-12T13:50:19.514Z,99637.25
2022-11-12T13:53:40.378Z,99634.56
2022-11-12T13:57:16.735Z,99629.13
2022-11-12T14:00:36.540Z,99617.94
2022-11-12T14:03:57.044Z,99613.56
2022-11-12T14:07:32.423Z,99609.25
2022-11-12T14:11:11.024Z,99621.59
2022-11-12T14:14:40.141Z,99624.06
2022-11-12T14:18:18.853Z,99621.00
2022-11-12T14:21:38.898Z,99603.00
2022-11-12T14:24:59.853Z,99605.22
2022-11-12T14:28:30.280Z,99595.81
2022-11-12T14:31:59.581Z,99599.19
2022-11-12T14:35:20.788Z,99602.00
2022-11-12T14:38:42.212Z,99599.72
2022-11-12T14:42:02.920Z,99615.28
2022-11-12T14:45:23.503Z,99606.78
2022-11-12T14:48:47.990Z,99609.78
2022-11-12T14:52:08.527Z,99622.13
2022-11-12T14:55:33.011Z,99625.00
2022-11-12T14:58:53.016Z,99613.47
2022-11-12T15:02:31.604Z,99606.59
2022-11-12T15:05:54.089Z,99608.19
2022-11-12T15:09:21.002Z,99590.16
2022-11-12T15:12:41.605Z,99586.44
2022-11-12T15:16:04.688Z,99578.38
2022-11-12T15:19:27.947Z,99577.81
2022-11-12T15:22:51.747Z,99574.47
2022-11-12T15:26:14.317Z,99580.81
2022-11-12T15:29:34.969Z,99577.47
2022-11-12T15:33:08.176Z,99568.56
2022-11-12T15:36:28.014Z,99570.53
2022-11-12T15:39:48.591Z,99568.56
2022-11-12T15:43:22.392Z,99576.50
2022-11-12T15:46:42.285Z,99570.06
2022-11-12T15:50:02.142Z,99575.22
2022-11-12T15:53:22.819Z,99577.25
2022-11-12T15:56:43.369Z,99581.47
2022-11-12T16:00:08.485Z,99591.25
2022-11-12T16:03:29.185Z,99600.09
2022-11-12T16:06:50.304Z,99591.25
2022-11-12T16:10:14.413Z,99595.75
2022-11-12T16:13:35.027Z,99602.94
2022-11-12T16:16:55.570Z,99595.94
2022-11-12T16:20:17.049Z,99584.72
2022-11-12T16:23:37.460Z,99600.41
2022-11-12T16:26:57.669Z,99587.88
2022-11-12T16:30:19.117Z,99592.63
2022-11-12T16:33:39.223Z,99585.97
2022-11-12T16:36:59.073Z,99587.56
2022-11-12T16:40:20.007Z,99581.66
2022-11-12T16:43:40.440Z,99589.63
2022-11-12T16:47:01.918Z,99579.19
2022-11-12T16:50:23.179Z,99573.03
2022-11-12T16:53:43.560Z,99574.56
2022-11-12T16:57:03.849Z,99566.03
2022-11-12T17:00:24.128Z,99571.56
2022-11-12T17:03:43.886Z,99573.94
2022-11-12T17:07:05.167Z,99569.69
2022-11-12T17:10:25.776Z,99580.13
2022-11-12T17:13:45.936Z,99579.88
2022-11-12T17:17:05.832Z,99573.53
2022-11-12T17:20:25.906Z,99576.19
2022-11-12T17:23:45.975Z,99573.25
2022-11-12T17:27:05.776Z,99567.41
2022-11-12T17:30:25.778Z,99559.94
2022-11-12T17:33:47.298Z,99558.06
2022-11-12T17:37:07.825Z,99568.44
2022-11-12T17:40:27.900Z,99575.09
2022-11-12T17:43:47.871Z,99583.88
2022-11-12T17:47:07.772Z,99592.69
2022-11-12T17:50:27.776Z,99596.72
2022-11-12T17:53:48.168Z,99578.88
2022-11-12T17:57:08.273Z,99579.94
2022-11-12T18:00:33.828Z,99576.97
2022-11-12T18:03:54.684Z,99581.22
2022-11-12T18:07:14.945Z,99578.25
2022-11-12T18:10:35.991Z,99587.03
2022-11-12T18:13:56.586Z,99589.97
2022-11-12T18:17:16.628Z,99578.78
2022-11-12T18:20:38.052Z,99588.41
2022-11-12T18:23:58.031Z,99599.09
2022-11-12T18:27:17.751Z,99591.13
2022-11-12T18:30:37.663Z,99589.81
2022-11-12T18:33:57.743Z,99614.03
2022-11-12T18:37:17.675Z,99618.81
2022-11-12T18:40:38.144Z,99631.56
2022-11-12T18:43:59.160Z,99618.53
2022-11-12T18:47:19.379Z,99618.25
2022-11-12T18:50:39.209Z,99624.13
2022-11-12T18:53:59.114Z,99629.25
2022-11-12T18:57:19.126Z,99614.59
2022-11-12T19:00:38.893Z,99619.13
2022-11-12T19:03:58.540Z,99622.00
2022-11-12T19:07:18.734Z,99615.09
2022-11-12T19:10:39.137Z,99608.97
2022-11-12T19:13:59.396Z,99598.63
2022-11-12T19:17:20.136Z,99594.38
2022-11-12T19:21:16.199Z,99596.50
2022-11-12T19:24:36.410Z,99586.63
2022-11-12T19:27:56.246Z,99579.94
2022-11-12T19:31:18.123Z,99581.72
2022-11-12T19:34:38.797Z,99591.00
2022-11-12T19:37:59.305Z,99587.22
2022-11-12T19:41:20.189Z,99573.91
2022-11-12T19:44:40.289Z,99573.88
2022-11-12T19:48:01.259Z,99566.94
2022-11-12T19:51:21.573Z,99558.97
2022-11-12T19:54:41.407Z,99564.28
2022-11-12T19:58:01.382Z,99566.09
2022-11-12T20:01:21.720Z,99577.78
2022-11-12T20:04:41.568Z,99573.22
2022-11-12T20:08:01.289Z,99572.16
2022-11-12T20:11:21.352Z,99575.16
2022-11-12T20:14:41.839Z,99572.31
2022-11-12T20:18:02.353Z,99575.75
2022-11-12T20:21:26.409Z,99582.47
2022-11-12T20:24:46.943Z,99588.03
2022-11-12T20:28:07.395Z,99586.38
2022-11-12T20:31:27.549Z,99586.31
2022-11-12T20:34:47.400Z,99584.22
2022-11-12T20:38:07.387Z,99579.09
2022-11-12T20:41:27.326Z,99587.34
2022-11-12T20:44:47.376Z,99580.81
2022-11-12T20:48:07.919Z,99580.16
2022-11-12T20:51:32.925Z,99570.06
2022-11-12T20:54:53.558Z,99589.53
2022-11-12T20:58:13.611Z,99581.31
2022-11-12T21:01:33.995Z,99584.72
2022-11-12T21:04:54.817Z,99583.63
2022-11-12T21:08:15.293Z,99581.03
2022-11-12T21:11:35.406Z,99574.63
2022-11-12T21:14:55.260Z,99574.13
2022-11-12T21:18:15.018Z,99572.22
2022-11-12T21:21:34.881Z,99568.72
2022-11-12T21:24:54.687Z,99565.53
2022-11-12T21:28:14.532Z,99572.16
2022-11-12T21:31:34.378Z,99578.00
2022-11-12T21:34:55.695Z,99588.34
2022-11-12T21:38:15.547Z,99590.97
2022-11-12T21:41:35.452Z,99594.13
2022-11-12T21:44:55.229Z,99600.53
2022-11-12T21:48:15.133Z,99593.41
2022-11-12T21:51:34.864Z,99594.19
2022-11-12T21:54:54.840Z,99583.78
2022-11-12T21:58:14.772Z,99576.34
2022-11-12T22:01:34.824Z,99575.56
2022-11-12T22:04:54.925Z,99577.16
2022-11-12T22:08:14.797Z,99571.06
2022-11-12T22:11:34.809Z,99562.50
2022-11-12T22:14:55.005Z,99562.50
2022-11-12T22:18:14.739Z,99565.69
2022-11-12T22:21:39.724Z,99561.16
2022-11-12T22:25:01.179Z,99561.66
2022-11-12T22:28:26.773Z,99556.84
2022-11-12T22:31:47.105Z,99553.09
2022-11-12T22:35:07.631Z,99563.72
2022-11-12T22:38:31.764Z,99553.09
2022-11-12T22:41:51.548Z,99539.25
2022-11-12T22:45:12.039Z,99535.50
2022-11-12T22:48:32.639Z,99541.38
2022-11-12T22:51:52.615Z,99547.25
2022-11-12T22:55:12.446Z,99548.34
2022-11-12T22:58:52.686Z,99541.94
2022-11-12T23:02:12.747Z,99545.41
2022-11-12T23:05:32.598Z,99545.97
2022-11-12T23:08:52.885Z,99547.56
2022-11-12T23:12:12.654Z,99549.97
2022-11-12T23:15:32.429Z,99545.19
2022-11-12T23:18:52.712Z,99545.72
2022-11-12T23:22:12.582Z,99549.75
2022-11-12T23:25:32.866Z,99549.25
2022-11-12T23:28:53.083Z,99543.66
2022-11-12T23:32:12.811Z,99550.88
2022-11-12T23:35:32.548Z,99542.38
2022-11-12T23:38:52.741Z,99544.25
2022-11-12T23:42:12.969Z,99553.91
2022-11-12T23:45:36.065Z,99539.25
2022-11-12T23:48:55.879Z,99544.84
2022-11-12T23:52:16.510Z,99549.13
2022-11-12T23:55:38.779Z,99544.31
2022-11-12T23:58:59.007Z,99524.59
